sensor_id;sensor_type;location;lat;lon;timestamp;temperature;humidity
20337;DHT22;10326;53.660;10.200;2023-05-14T00:00:46;16.50;49.80
20337;DHT22;10326;53.660;10.200;2023-05-14T00:03:13;16.50;49.80
20337;DHT22;10326;53.660;10.200;2023-05-14T00:05:40;16.50;49.80
20337;DHT22;10326;53.660;10.200;2023-05-14T00:08:08;16.40;49.80
20337;DHT22;10326;53.660;10.200;2023-05-14T00:10:35;16.40;49.90
20337;DHT22;10326;53.660;10.200;2023-05-14T00:13:04;16.40;50.20
20337;DHT22;10326;53.660;10.200;2023-05-14T00:15:31;16.30;50.20
20337;DHT22;10326;53.660;10.200;2023-05-14T00:17:59;16.30;50.10
20337;DHT22;10326;53.660;10.200;2023-05-14T00:20:26;16.30;50.20
20337;DHT22;10326;53.660;10.200;2023-05-14T00:22:53;16.20;50.40
20337;DHT22;10326;53.660;10.200;2023-05-14T00:25:21;16.20;50.40
20337;DHT22;10326;53.660;10.200;2023-05-14T00:27:48;16.20;50.40
20337;DHT22;10326;53.660;10.200;2023-05-14T00:30:16;16.10;50.40
20337;DHT22;10326;53.660;10.200;2023-05-14T00:32:44;16.10;50.60
20337;DHT22;10326;53.660;10.200;2023-05-14T00:35:12;16.10;50.60
20337;DHT22;10326;53.660;10.200;2023-05-14T00:37:39;16.10;50.90
20337;DHT22;10326;53.660;10.200;2023-05-14T00:40:08;16.00;50.70
20337;DHT22;10326;53.660;10.200;2023-05-14T00:42:37;16.00;50.90
20337;DHT22;10326;53.660;10.200;2023-05-14T00:45:06;16.00;50.80
20337;DHT22;10326;53.660;10.200;2023-05-14T00:47:35;15.90;50.90
20337;DHT22;10326;53.660;10.200;2023-05-14T00:50:04;15.90;51.10
20337;DHT22;10326;53.660;10.200;2023-05-14T00:52:32;15.90;51.10
20337;DHT22;10326;53.660;10.200;2023-05-14T00:55:02;15.80;51.20
20337;DHT22;10326;53.660;10.200;2023-05-14T00:57:30;15.80;51.40
20337;DHT22;10326;53.660;10.200;2023-05-14T00:59:58;15.80;51.20
20337;DHT22;10326;53.660;10.200;2023-05-14T01:02:25;15.80;51.30
20337;DHT22;10326;53.660;10.200;2023-05-14T01:04:54;15.70;51.70
20337;DHT22;10326;53.660;10.200;2023-05-14T01:07:28;15.70;51.40
20337;DHT22;10326;53.660;10.200;2023-05-14T01:10:02;15.70;51.40
20337;DHT22;10326;53.660;10.200;2023-05-14T01:12:36;15.70;51.50
20337;DHT22;10326;53.660;10.200;2023-05-14T01:15:10;15.60;51.50
20337;DHT22;10326;53.660;10.200;2023-05-14T01:17:45;15.60;51.80
20337;DHT22;10326;53.660;10.200;2023-05-14T01:20:16;15.60;51.90
20337;DHT22;10326;53.660;10.200;2023-05-14T01:22:45;15.60;51.90
20337;DHT22;10326;53.660;10.200;2023-05-14T01:25:12;15.50;52.00
20337;DHT22;10326;53.660;10.200;2023-05-14T01:27:44;15.50;51.90
20337;DHT22;10326;53.660;10.200;2023-05-14T01:30:20;15.50;52.10
20337;DHT22;10326;53.660;10.200;2023-05-14T01:32:57;15.50;52.20
20337;DHT22;10326;53.660;10.200;2023-05-14T01:35:28;15.40;52.10
20337;DHT22;10326;53.660;10.200;2023-05-14T01:37:59;15.40;52.10
20337;DHT22;10326;53.660;10.200;2023-05-14T01:40:28;15.40;52.20
20337;DHT22;10326;53.660;10.200;2023-05-14T01:42:56;15.40;52.20
20337;DHT22;10326;53.660;10.200;2023-05-14T01:45:23;15.40;52.30
20337;DHT22;10326;53.660;10.200;2023-05-14T01:47:51;15.40;52.30
20337;DHT22;10326;53.660;10.200;2023-05-14T01:50:19;15.40;52.40
20337;DHT22;10326;53.660;10.200;2023-05-14T01:52:46;15.30;52.40
20337;DHT22;10326;53.660;10.200;2023-05-14T01:55:15;15.30;52.50
20337;DHT22;10326;53.660;10.200;2023-05-14T01:57:42;15.30;52.70
20337;DHT22;10326;53.660;10.200;2023-05-14T02:00:11;15.30;52.60
20337;DHT22;10326;53.660;10.200;2023-05-14T02:02:41;15.20;52.60
20337;DHT22;10326;53.660;10.200;2023-05-14T02:05:11;15.20;52.60
20337;DHT22;10326;53.660;10.200;2023-05-14T02:07:39;15.20;52.80
20337;DHT22;10326;53.660;10.200;2023-05-14T02:10:08;15.20;53.30
20337;DHT22;10326;53.660;10.200;2023-05-14T02:12:37;15.20;53.00
20337;DHT22;10326;53.660;10.200;2023-05-14T02:15:05;15.20;53.20
20337;DHT22;10326;53.660;10.200;2023-05-14T02:17:35;15.10;53.10
20337;DHT22;10326;53.660;10.200;2023-05-14T02:20:03;15.10;53.10
20337;DHT22;10326;53.660;10.200;2023-05-14T02:22:32;15.00;53.20
20337;DHT22;10326;53.660;10.200;2023-05-14T02:24:59;15.00;53.20
20337;DHT22;10326;53.660;10.200;2023-05-14T02:27:26;15.00;53.40
20337;DHT22;10326;53.660;10.200;2023-05-14T02:29:55;15.00;53.40
20337;DHT22;10326;53.660;10.200;2023-05-14T02:32:25;14.90;53.50
20337;DHT22;10326;53.660;10.200;2023-05-14T02:34:52;14.90;53.50
20337;DHT22;10326;53.660;10.200;2023-05-14T02:37:19;14.80;53.50
20337;DHT22;10326;53.660;10.200;2023-05-14T02:39:46;14.80;53.60
20337;DHT22;10326;53.660;10.200;2023-05-14T02:42:14;14.80;53.70
20337;DHT22;10326;53.660;10.200;2023-05-14T02:44:42;14.80;53.70
20337;DHT22;10326;53.660;10.200;2023-05-14T02:47:11;14.80;53.80
20337;DHT22;10326;53.660;10.200;2023-05-14T02:49:38;14.70;53.90
20337;DHT22;10326;53.660;10.200;2023-05-14T02:52:06;14.70;53.80
20337;DHT22;10326;53.660;10.200;2023-05-14T02:54:33;14.70;53.90
20337;DHT22;10326;53.660;10.200;2023-05-14T02:57:00;14.70;54.00
20337;DHT22;10326;53.660;10.200;2023-05-14T02:59:29;14.70;54.00
20337;DHT22;10326;53.660;10.200;2023-05-14T03:01:56;14.70;53.90
20337;DHT22;10326;53.660;10.200;2023-05-14T03:04:25;14.70;54.00
20337;DHT22;10326;53.660;10.200;2023-05-14T03:06:52;14.60;54.20
20337;DHT22;10326;53.660;10.200;2023-05-14T03:09:19;14.60;54.10
20337;DHT22;10326;53.660;10.200;2023-05-14T03:11:46;14.60;54.20
20337;DHT22;10326;53.660;10.200;2023-05-14T03:14:14;14.60;54.30
20337;DHT22;10326;53.660;10.200;2023-05-14T03:16:41;14.60;54.40
20337;DHT22;10326;53.660;10.200;2023-05-14T03:19:08;14.50;54.40
20337;DHT22;10326;53.660;10.200;2023-05-14T03:21:36;14.50;54.50
20337;DHT22;10326;53.660;10.200;2023-05-14T03:24:04;14.50;54.60
20337;DHT22;10326;53.660;10.200;2023-05-14T03:26:32;14.50;54.70
20337;DHT22;10326;53.660;10.200;2023-05-14T03:28:59;14.50;54.70
20337;DHT22;10326;53.660;10.200;2023-05-14T03:31:26;14.50;54.70
20337;DHT22;10326;53.660;10.200;2023-05-14T03:33:55;14.40;54.60
20337;DHT22;10326;53.660;10.200;2023-05-14T03:36:22;14.40;54.70
20337;DHT22;10326;53.660;10.200;2023-05-14T03:38:51;14.40;54.70
20337;DHT22;10326;53.660;10.200;2023-05-14T03:41:18;14.40;54.90
20337;DHT22;10326;53.660;10.200;2023-05-14T03:43:47;14.40;54.90
20337;DHT22;10326;53.660;10.200;2023-05-14T03:46:15;14.30;54.90
20337;DHT22;10326;53.660;10.200;2023-05-14T03:48:42;14.40;55.10
20337;DHT22;10326;53.660;10.200;2023-05-14T03:51:10;14.30;55.10
20337;DHT22;10326;53.660;10.200;2023-05-14T03:53:37;14.30;55.20
20337;DHT22;10326;53.660;10.200;2023-05-14T03:56:07;14.30;55.30
20337;DHT22;10326;53.660;10.200;2023-05-14T03:58:34;14.30;55.50
20337;DHT22;10326;53.660;10.200;2023-05-14T04:01:02;14.20;55.40
20337;DHT22;10326;53.660;10.200;2023-05-14T04:03:29;14.20;55.80
20337;DHT22;10326;53.660;10.200;2023-05-14T04:05:57;14.30;55.60
20337;DHT22;10326;53.660;10.200;2023-05-14T04:08:24;14.20;55.70
20337;DHT22;10326;53.660;10.200;2023-05-14T04:10:51;14.30;55.80
20337;DHT22;10326;53.660;10.200;2023-05-14T04:13:23;14.20;55.70
20337;DHT22;10326;53.660;10.200;2023-05-14T04:15:50;14.30;56.00
20337;DHT22;10326;53.660;10.200;2023-05-14T04:18:17;14.20;55.90
20337;DHT22;10326;53.660;10.200;2023-05-14T04:20:45;14.30;56.10
20337;DHT22;10326;53.660;10.200;2023-05-14T04:23:12;14.30;56.30
20337;DHT22;10326;53.660;10.200;2023-05-14T04:25:39;14.20;56.30
20337;DHT22;10326;53.660;10.200;2023-05-14T04:28:06;14.20;56.40
20337;DHT22;10326;53.660;10.200;2023-05-14T04:30:35;14.30;56.60
20337;DHT22;10326;53.660;10.200;2023-05-14T04:33:02;14.20;56.80
20337;DHT22;10326;53.660;10.200;2023-05-14T04:35:29;14.30;56.70
20337;DHT22;10326;53.660;10.200;2023-05-14T04:37:57;14.30;56.80
20337;DHT22;10326;53.660;10.200;2023-05-14T04:40:24;14.30;56.90
20337;DHT22;10326;53.660;10.200;2023-05-14T04:42:51;14.30;57.00
20337;DHT22;10326;53.660;10.200;2023-05-14T04:45:18;14.30;57.00
20337;DHT22;10326;53.660;10.200;2023-05-14T04:47:48;14.30;57.10
20337;DHT22;10326;53.660;10.200;2023-05-14T04:50:15;14.30;57.30
20337;DHT22;10326;53.660;10.200;2023-05-14T04:52:43;14.40;57.30
20337;DHT22;10326;53.660;10.200;2023-05-14T04:55:10;14.30;57.40
20337;DHT22;10326;53.660;10.200;2023-05-14T04:57:37;14.40;57.60
20337;DHT22;10326;53.660;10.200;2023-05-14T05:00:06;14.40;57.80
20337;DHT22;10326;53.660;10.200;2023-05-14T05:02:34;14.40;57.90
20337;DHT22;10326;53.660;10.200;2023-05-14T05:05:03;14.40;57.90
20337;DHT22;10326;53.660;10.200;2023-05-14T05:07:31;14.50;58.10
20337;DHT22;10326;53.660;10.200;2023-05-14T05:09:58;14.50;58.10
20337;DHT22;10326;53.660;10.200;2023-05-14T05:12:26;14.50;58.60
20337;DHT22;10326;53.660;10.200;2023-05-14T05:17:24;14.60;58.60
20337;DHT22;10326;53.660;10.200;2023-05-14T05:19:51;14.60;58.40
20337;DHT22;10326;53.660;10.200;2023-05-14T05:22:20;14.70;58.60
20337;DHT22;10326;53.660;10.200;2023-05-14T05:24:47;14.70;58.80
20337;DHT22;10326;53.660;10.200;2023-05-14T05:27:14;14.80;58.80
20337;DHT22;10326;53.660;10.200;2023-05-14T05:29:42;14.80;58.80
20337;DHT22;10326;53.660;10.200;2023-05-14T05:32:11;14.90;59.10
20337;DHT22;10326;53.660;10.200;2023-05-14T05:34:38;14.90;59.50
20337;DHT22;10326;53.660;10.200;2023-05-14T05:37:05;15.00;59.20
20337;DHT22;10326;53.660;10.200;2023-05-14T05:39:35;15.00;59.10
20337;DHT22;10326;53.660;10.200;2023-05-14T05:42:02;15.10;59.50
20337;DHT22;10326;53.660;10.200;2023-05-14T05:44:31;15.20;59.40
20337;DHT22;10326;53.660;10.200;2023-05-14T05:46:58;15.20;59.50
20337;DHT22;10326;53.660;10.200;2023-05-14T05:49:25;15.30;59.50
20337;DHT22;10326;53.660;10.200;2023-05-14T05:51:52;15.30;59.50
20337;DHT22;10326;53.660;10.200;2023-05-14T05:54:21;15.40;59.60
20337;DHT22;10326;53.660;10.200;2023-05-14T05:56:50;15.40;59.70
20337;DHT22;10326;53.660;10.200;2023-05-14T05:59:17;15.50;60.00
20337;DHT22;10326;53.660;10.200;2023-05-14T06:01:44;15.60;59.90
20337;DHT22;10326;53.660;10.200;2023-05-14T06:04:12;15.60;60.00
20337;DHT22;10326;53.660;10.200;2023-05-14T06:06:40;15.70;60.10
20337;DHT22;10326;53.660;10.200;2023-05-14T06:09:07;15.80;60.20
20337;DHT22;10326;53.660;10.200;2023-05-14T06:11:36;15.80;60.20
20337;DHT22;10326;53.660;10.200;2023-05-14T06:14:04;15.90;60.20
20337;DHT22;10326;53.660;10.200;2023-05-14T06:16:32;15.90;60.40
20337;DHT22;10326;53.660;10.200;2023-05-14T06:18:59;16.00;60.50
20337;DHT22;10326;53.660;10.200;2023-05-14T06:21:26;16.10;60.80
20337;DHT22;10326;53.660;10.200;2023-05-14T06:23:54;16.10;60.90
20337;DHT22;10326;53.660;10.200;2023-05-14T06:26:21;16.20;61.00
20337;DHT22;10326;53.660;10.200;2023-05-14T06:28:48;16.30;61.00
20337;DHT22;10326;53.660;10.200;2023-05-14T06:31:17;16.40;60.90
20337;DHT22;10326;53.660;10.200;2023-05-14T06:33:45;16.40;61.20
20337;DHT22;10326;53.660;10.200;2023-05-14T06:36:12;16.50;61.00
20337;DHT22;10326;53.660;10.200;2023-05-14T06:38:40;16.50;60.80
20337;DHT22;10326;53.660;10.200;2023-05-14T06:41:08;16.60;61.40
20337;DHT22;10326;53.660;10.200;2023-05-14T06:43:35;16.70;61.20
20337;DHT22;10326;53.660;10.200;2023-05-14T06:46:02;16.80;61.30
20337;DHT22;10326;53.660;10.200;2023-05-14T06:48:31;16.90;61.20
20337;DHT22;10326;53.660;10.200;2023-05-14T06:50:58;16.90;61.60
20337;DHT22;10326;53.660;10.200;2023-05-14T06:53:25;17.00;61.00
20337;DHT22;10326;53.660;10.200;2023-05-14T06:55:53;17.10;61.30
20337;DHT22;10326;53.660;10.200;2023-05-14T06:58:20;17.10;61.30
20337;DHT22;10326;53.660;10.200;2023-05-14T07:00:48;17.20;61.20
20337;DHT22;10326;53.660;10.200;2023-05-14T07:03:16;17.20;60.70
20337;DHT22;10326;53.660;10.200;2023-05-14T07:05:45;17.30;60.90
20337;DHT22;10326;53.660;10.200;2023-05-14T07:08:12;17.40;60.80
20337;DHT22;10326;53.660;10.200;2023-05-14T07:10:39;17.40;60.40
20337;DHT22;10326;53.660;10.200;2023-05-14T07:13:07;17.50;60.80
20337;DHT22;10326;53.660;10.200;2023-05-14T07:15:35;17.60;61.00
20337;DHT22;10326;53.660;10.200;2023-05-14T07:18:03;17.70;60.90
20337;DHT22;10326;53.660;10.200;2023-05-14T07:20:30;17.70;61.10
20337;DHT22;10326;53.660;10.200;2023-05-14T07:22:59;17.80;61.10
20337;DHT22;10326;53.660;10.200;2023-05-14T07:25:26;17.90;60.40
20337;DHT22;10326;53.660;10.200;2023-05-14T07:27:53;18.00;59.90
20337;DHT22;10326;53.660;10.200;2023-05-14T07:30:21;18.10;60.20
20337;DHT22;10326;53.660;10.200;2023-05-14T07:32:48;18.10;60.10
20337;DHT22;10326;53.660;10.200;2023-05-14T07:35:15;18.20;60.20
20337;DHT22;10326;53.660;10.200;2023-05-14T07:37:43;18.30;60.60
20337;DHT22;10326;53.660;10.200;2023-05-14T07:40:12;18.30;60.40
20337;DHT22;10326;53.660;10.200;2023-05-14T07:42:39;18.40;60.30
20337;DHT22;10326;53.660;10.200;2023-05-14T07:45:07;18.40;60.00
20337;DHT22;10326;53.660;10.200;2023-05-14T07:47:35;18.50;59.70
20337;DHT22;10326;53.660;10.200;2023-05-14T07:50:02;18.60;59.40
20337;DHT22;10326;53.660;10.200;2023-05-14T07:52:29;18.70;59.60
20337;DHT22;10326;53.660;10.200;2023-05-14T07:54:57;18.80;59.20
20337;DHT22;10326;53.660;10.200;2023-05-14T07:57:26;18.80;59.20
20337;DHT22;10326;53.660;10.200;2023-05-14T07:59:53;18.90;59.20
20337;DHT22;10326;53.660;10.200;2023-05-14T08:02:20;19.00;59.30
20337;DHT22;10326;53.660;10.200;2023-05-14T08:04:47;19.00;59.10
20337;DHT22;10326;53.660;10.200;2023-05-14T08:07:15;19.10;58.80
20337;DHT22;10326;53.660;10.200;2023-05-14T08:09:42;19.20;58.50
20337;DHT22;10326;53.660;10.200;2023-05-14T08:12:09;19.20;58.40
20337;DHT22;10326;53.660;10.200;2023-05-14T08:14:37;19.30;58.40
20337;DHT22;10326;53.660;10.200;2023-05-14T08:17:05;19.40;58.20
20337;DHT22;10326;53.660;10.200;2023-05-14T08:19:32;19.40;58.10
20337;DHT22;10326;53.660;10.200;2023-05-14T08:21:59;19.50;58.00
20337;DHT22;10326;53.660;10.200;2023-05-14T08:24:26;19.60;58.10
20337;DHT22;10326;53.660;10.200;2023-05-14T08:26:54;19.60;58.10
20337;DHT22;10326;53.660;10.200;2023-05-14T08:29:21;19.70;57.80
20337;DHT22;10326;53.660;10.200;2023-05-14T08:31:49;19.80;57.50
20337;DHT22;10326;53.660;10.200;2023-05-14T08:34:16;19.90;57.10
20337;DHT22;10326;53.660;10.200;2023-05-14T08:36:44;19.90;57.10
20337;DHT22;10326;53.660;10.200;2023-05-14T08:39:11;20.00;57.10
20337;DHT22;10326;53.660;10.200;2023-05-14T08:41:38;20.10;57.10
20337;DHT22;10326;53.660;10.200;2023-05-14T08:44:07;20.10;56.80
20337;DHT22;10326;53.660;10.200;2023-05-14T08:46:39;20.20;56.70
20337;DHT22;10326;53.660;10.200;2023-05-14T08:49:14;20.30;56.70
20337;DHT22;10326;53.660;10.200;2023-05-14T08:51:51;20.40;56.50
20337;DHT22;10326;53.660;10.200;2023-05-14T08:54:18;20.40;56.00
20337;DHT22;10326;53.660;10.200;2023-05-14T08:56:47;20.50;55.60
20337;DHT22;10326;53.660;10.200;2023-05-14T08:59:14;20.60;56.20
20337;DHT22;10326;53.660;10.200;2023-05-14T09:01:45;20.60;55.70
20337;DHT22;10326;53.660;10.200;2023-05-14T09:04:15;20.70;55.20
20337;DHT22;10326;53.660;10.200;2023-05-14T09:06:48;20.80;54.80
20337;DHT22;10326;53.660;10.200;2023-05-14T09:09:16;20.90;55.00
20337;DHT22;10326;53.660;10.200;2023-05-14T09:11:45;20.90;55.00
20337;DHT22;10326;53.660;10.200;2023-05-14T09:14:13;21.00;54.40
20337;DHT22;10326;53.660;10.200;2023-05-14T09:16:43;21.00;54.20
20337;DHT22;10326;53.660;10.200;2023-05-14T09:19:12;21.10;53.70
20337;DHT22;10326;53.660;10.200;2023-05-14T09:21:41;21.20;53.50
20337;DHT22;10326;53.660;10.200;2023-05-14T09:24:18;21.30;53.40
20337;DHT22;10326;53.660;10.200;2023-05-14T09:26:49;21.30;53.40
20337;DHT22;10326;53.660;10.200;2023-05-14T09:29:18;21.30;53.60
20337;DHT22;10326;53.660;10.200;2023-05-14T09:31:49;21.40;53.20
20337;DHT22;10326;53.660;10.200;2023-05-14T09:34:23;21.50;52.70
20337;DHT22;10326;53.660;10.200;2023-05-14T09:36:55;21.50;52.60
20337;DHT22;10326;53.660;10.200;2023-05-14T09:39:23;21.60;52.40
20337;DHT22;10326;53.660;10.200;2023-05-14T09:41:51;21.70;52.70
20337;DHT22;10326;53.660;10.200;2023-05-14T09:44:19;21.70;51.80
20337;DHT22;10326;53.660;10.200;2023-05-14T09:46:47;21.80;52.30
20337;DHT22;10326;53.660;10.200;2023-05-14T09:49:15;21.80;51.90
20337;DHT22;10326;53.660;10.200;2023-05-14T09:51:43;21.90;51.30
20337;DHT22;10326;53.660;10.200;2023-05-14T09:54:12;21.90;51.20
20337;DHT22;10326;53.660;10.200;2023-05-14T09:56:40;22.00;51.60
20337;DHT22;10326;53.660;10.200;2023-05-14T09:59:08;22.10;51.30
20337;DHT22;10326;53.660;10.200;2023-05-14T10:01:37;22.10;51.30
20337;DHT22;10326;53.660;10.200;2023-05-14T10:04:06;22.20;51.10
20337;DHT22;10326;53.660;10.200;2023-05-14T10:06:37;22.20;50.80
20337;DHT22;10326;53.660;10.200;2023-05-14T10:09:10;22.30;50.50
20337;DHT22;10326;53.660;10.200;2023-05-14T10:11:43;22.30;49.50
20337;DHT22;10326;53.660;10.200;2023-05-14T10:14:23;22.40;48.90
20337;DHT22;10326;53.660;10.200;2023-05-14T10:17:02;22.40;49.50
20337;DHT22;10326;53.660;10.200;2023-05-14T10:19:32;22.50;49.70
20337;DHT22;10326;53.660;10.200;2023-05-14T10:22:06;22.60;49.20
20337;DHT22;10326;53.660;10.200;2023-05-14T10:24:36;22.70;48.60
20337;DHT22;10326;53.660;10.200;2023-05-14T10:27:04;22.80;48.60
20337;DHT22;10326;53.660;10.200;2023-05-14T10:29:32;22.90;48.90
20337;DHT22;10326;53.660;10.200;2023-05-14T10:32:09;23.00;48.80
20337;DHT22;10326;53.660;10.200;2023-05-14T10:34:38;23.00;47.50
20337;DHT22;10326;53.660;10.200;2023-05-14T10:37:10;23.10;48.20
20337;DHT22;10326;53.660;10.200;2023-05-14T10:39:44;23.10;47.40
20337;DHT22;10326;53.660;10.200;2023-05-14T10:42:15;23.20;47.00
20337;DHT22;10326;53.660;10.200;2023-05-14T10:44:47;23.20;47.30
20337;DHT22;10326;53.660;10.200;2023-05-14T10:47:17;23.20;47.20
20337;DHT22;10326;53.660;10.200;2023-05-14T10:49:46;23.20;47.00
20337;DHT22;10326;53.660;10.200;2023-05-14T10:52:18;23.20;46.60
20337;DHT22;10326;53.660;10.200;2023-05-14T10:54:54;23.20;46.40
20337;DHT22;10326;53.660;10.200;2023-05-14T10:57:24;23.20;45.80
20337;DHT22;10326;53.660;10.200;2023-05-14T10:59:55;23.20;46.30
20337;DHT22;10326;53.660;10.200;2023-05-14T11:02:24;23.20;46.00
20337;DHT22;10326;53.660;10.200;2023-05-14T11:04:58;23.20;45.80
20337;DHT22;10326;53.660;10.200;2023-05-14T11:07:29;23.20;45.80
20337;DHT22;10326;53.660;10.200;2023-05-14T11:10:04;23.20;45.40
20337;DHT22;10326;53.660;10.200;2023-05-14T11:12:32;23.10;45.60
20337;DHT22;10326;53.660;10.200;2023-05-14T11:15:03;23.10;45.50
20337;DHT22;10326;53.660;10.200;2023-05-14T11:17:33;23.10;45.20
20337;DHT22;10326;53.660;10.200;2023-05-14T11:20:01;23.10;45.40
20337;DHT22;10326;53.660;10.200;2023-05-14T11:22:30;23.10;45.50
20337;DHT22;10326;53.660;10.200;2023-05-14T11:24:57;23.10;45.50
20337;DHT22;10326;53.660;10.200;2023-05-14T11:27:46;23.10;46.50
20337;DHT22;10326;53.660;10.200;2023-05-14T11:30:23;23.10;45.40
20337;DHT22;10326;53.660;10.200;2023-05-14T11:32:51;23.10;45.90
20337;DHT22;10326;53.660;10.200;2023-05-14T11:35:18;23.10;45.40
20337;DHT22;10326;53.660;10.200;2023-05-14T11:37:49;23.10;45.10
20337;DHT22;10326;53.660;10.200;2023-05-14T11:40:26;23.10;45.20
20337;DHT22;10326;53.660;10.200;2023-05-14T11:42:57;23.10;45.60
20337;DHT22;10326;53.660;10.200;2023-05-14T11:45:27;23.20;45.50
20337;DHT22;10326;53.660;10.200;2023-05-14T11:47:55;23.20;46.00
20337;DHT22;10326;53.660;10.200;2023-05-14T11:50:44;23.30;45.60
20337;DHT22;10326;53.660;10.200;2023-05-14T11:53:30;23.30;45.20
20337;DHT22;10326;53.660;10.200;2023-05-14T11:55:57;23.40;44.60
20337;DHT22;10326;53.660;10.200;2023-05-14T11:58:25;23.40;45.30
20337;DHT22;10326;53.660;10.200;2023-05-14T12:00:56;23.40;44.40
20337;DHT22;10326;53.660;10.200;2023-05-14T12:04:33;23.40;43.90
20337;DHT22;10326;53.660;10.200;2023-05-14T12:06:59;23.40;44.70
20337;DHT22;10326;53.660;10.200;2023-05-14T12:09:27;23.50;44.60
20337;DHT22;10326;53.660;10.200;2023-05-14T12:12:24;23.50;45.00
20337;DHT22;10326;53.660;10.200;2023-05-14T12:14:53;23.50;44.50
20337;DHT22;10326;53.660;10.200;2023-05-14T12:18:12;23.50;44.40
20337;DHT22;10326;53.660;10.200;2023-05-14T12:20:48;23.50;44.40
20337;DHT22;10326;53.660;10.200;2023-05-14T12:25:51;23.40;44.10
20337;DHT22;10326;53.660;10.200;2023-05-14T12:31:03;23.30;44.20
20337;DHT22;10326;53.660;10.200;2023-05-14T12:33:32;23.30;44.20
20337;DHT22;10326;53.660;10.200;2023-05-14T12:36:03;23.20;44.20
20337;DHT22;10326;53.660;10.200;2023-05-14T12:38:31;23.20;44.80
20337;DHT22;10326;53.660;10.200;2023-05-14T12:40:58;23.20;45.00
20337;DHT22;10326;53.660;10.200;2023-05-14T12:43:26;23.10;45.20
20337;DHT22;10326;53.660;10.200;2023-05-14T12:46:01;23.00;45.40
20337;DHT22;10326;53.660;10.200;2023-05-14T12:48:32;23.00;45.90
20337;DHT22;10326;53.660;10.200;2023-05-14T12:50:59;22.90;46.80
20337;DHT22;10326;53.660;10.200;2023-05-14T12:53:40;22.90;47.10
20337;DHT22;10326;53.660;10.200;2023-05-14T12:56:14;22.80;47.60
20337;DHT22;10326;53.660;10.200;2023-05-14T13:06:37;22.70;47.50
20337;DHT22;10326;53.660;10.200;2023-05-14T13:12:57;22.70;46.80
20337;DHT22;10326;53.660;10.200;2023-05-14T13:16:44;22.70;48.10
20337;DHT22;10326;53.660;10.200;2023-05-14T13:19:16;22.70;48.20
20337;DHT22;10326;53.660;10.200;2023-05-14T13:21:46;22.80;48.20
20337;DHT22;10326;53.660;10.200;2023-05-14T13:24:13;22.90;47.70
20337;DHT22;10326;53.660;10.200;2023-05-14T13:26:51;23.00;48.10
20337;DHT22;10326;53.660;10.200;2023-05-14T13:30:01;23.10;48.30
20337;DHT22;10326;53.660;10.200;2023-05-14T13:37:20;23.40;46.20
20337;DHT22;10326;53.660;10.200;2023-05-14T13:44:36;23.50;45.50
20337;DHT22;10326;53.660;10.200;2023-05-14T13:47:05;23.50;45.70
20337;DHT22;10326;53.660;10.200;2023-05-14T13:49:34;23.50;45.70
20337;DHT22;10326;53.660;10.200;2023-05-14T13:52:25;23.60;45.60
20337;DHT22;10326;53.660;10.200;2023-05-14T13:54:55;23.60;45.50
20337;DHT22;10326;53.660;10.200;2023-05-14T13:57:22;23.60;45.50
20337;DHT22;10326;53.660;10.200;2023-05-14T13:59:50;23.70;45.30
20337;DHT22;10326;53.660;10.200;2023-05-14T14:02:18;23.80;45.50
20337;DHT22;10326;53.660;10.200;2023-05-14T14:04:45;23.90;45.20
20337;DHT22;10326;53.660;10.200;2023-05-14T14:07:13;24.00;45.40
20337;DHT22;10326;53.660;10.200;2023-05-14T14:09:43;24.20;46.00
20337;DHT22;10326;53.660;10.200;2023-05-14T14:12:33;24.30;44.70
20337;DHT22;10326;53.660;10.200;2023-05-14T14:15:21;24.50;44.40
20337;DHT22;10326;53.660;10.200;2023-05-14T14:17:49;24.60;44.60
20337;DHT22;10326;53.660;10.200;2023-05-14T14:20:48;24.70;44.40
20337;DHT22;10326;53.660;10.200;2023-05-14T14:23:20;24.80;44.20
20337;DHT22;10326;53.660;10.200;2023-05-14T14:26:06;24.90;43.20
20337;DHT22;10326;53.660;10.200;2023-05-14T14:28:35;25.00;43.40
20337;DHT22;10326;53.660;10.200;2023-05-14T14:31:45;25.10;43.30
20337;DHT22;10326;53.660;10.200;2023-05-14T14:34:39;25.20;43.60
20337;DHT22;10326;53.660;10.200;2023-05-14T14:37:07;25.20;43.20
20337;DHT22;10326;53.660;10.200;2023-05-14T14:39:34;25.20;43.20
20337;DHT22;10326;53.660;10.200;2023-05-14T14:42:04;25.30;43.40
20337;DHT22;10326;53.660;10.200;2023-05-14T14:44:32;25.40;43.80
20337;DHT22;10326;53.660;10.200;2023-05-14T14:47:00;25.50;43.20
20337;DHT22;10326;53.660;10.200;2023-05-14T14:51:58;25.70;42.80
20337;DHT22;10326;53.660;10.200;2023-05-14T14:55:37;25.70;43.00
20337;DHT22;10326;53.660;10.200;2023-05-14T14:57:26;25.90;42.50
20337;DHT22;10326;53.660;10.200;2023-05-14T15:00:03;25.90;42.50
20337;DHT22;10326;53.660;10.200;2023-05-14T15:02:39;26.00;42.30
20337;DHT22;10326;53.660;10.200;2023-05-14T15:05:54;26.10;42.10
20337;DHT22;10326;53.660;10.200;2023-05-14T15:08:27;26.10;41.60
20337;DHT22;10326;53.660;10.200;2023-05-14T15:11:06;26.10;41.50
20337;DHT22;10326;53.660;10.200;2023-05-14T15:21:05;26.20;41.00
20337;DHT22;10326;53.660;10.200;2023-05-14T15:23:32;26.20;41.10
20337;DHT22;10326;53.660;10.200;2023-05-14T15:26:03;26.20;40.80
20337;DHT22;10326;53.660;10.200;2023-05-14T15:28:30;26.20;40.70
20337;DHT22;10326;53.660;10.200;2023-05-14T15:30:58;26.20;40.90
20337;DHT22;10326;53.660;10.200;2023-05-14T15:33:27;26.20;41.00
20337;DHT22;10326;53.660;10.200;2023-05-14T15:35:54;26.20;41.10
20337;DHT22;10326;53.660;10.200;2023-05-14T15:38:24;26.10;41.20
20337;DHT22;10326;53.660;10.200;2023-05-14T15:40:51;26.10;41.10
20337;DHT22;10326;53.660;10.200;2023-05-14T15:43:19;26.10;41.10
20337;DHT22;10326;53.660;10.200;2023-05-14T15:45:46;26.10;40.50
20337;DHT22;10326;53.660;10.200;2023-05-14T15:48:16;26.10;40.80
20337;DHT22;10326;53.660;10.200;2023-05-14T15:50:47;26.00;41.00
20337;DHT22;10326;53.660;10.200;2023-05-14T15:53:20;26.00;41.20
20337;DHT22;10326;53.660;10.200;2023-05-14T15:55:57;26.00;41.40
20337;DHT22;10326;53.660;10.200;2023-05-14T15:58:30;26.00;41.20
20337;DHT22;10326;53.660;10.200;2023-05-14T16:00:58;26.00;41.40
20337;DHT22;10326;53.660;10.200;2023-05-14T16:03:26;26.00;41.30
20337;DHT22;10326;53.660;10.200;2023-05-14T16:05:55;26.00;41.10
20337;DHT22;10326;53.660;10.200;2023-05-14T16:08:23;25.90;40.80
20337;DHT22;10326;53.660;10.200;2023-05-14T16:10:51;25.90;40.80
20337;DHT22;10326;53.660;10.200;2023-05-14T16:13:18;25.90;40.60